Time;durP1;ratioP1;P1;durP2;ratioP2;P2;SDS_P1;SDS_P2;PMS_P1;PMS_P2;Temp;Humidity;BMP_temperature;BMP_pressure;BME280_temperature;BME280_humidity;BME280_pressure;Samples;Min_cycle;Max_cycle;Signal;HPM_P1;HPM_P2
2023/07/21 00:03:52;;;;;;;5.00;3.00;;;13.20;1.00;;;;;;8258937;28;20201;-63
2023/07/21 00:07:54;;;;;;;2.67;2.40;;;13.30;1.00;;;;;;8262986;28;20215;-65
2023/07/21 00:11:55;;;;;;;2.57;2.37;;;13.40;1.00;;;;;;8262942;28;20291;-64
2023/07/21 00:15:56;;;;;;;2.60;2.30;;;13.40;1.00;;;;;;8261510;28;20196;-65
2023/07/21 00:20:03;;;;;;;2.50;2.30;;;13.40;1.00;;;;;;8265605;28;20223;-63
2023/07/21 00:24:06;;;;;;;2.77;2.57;;;13.30;1.00;;;;;;8267116;28;20179;-63
2023/07/21 00:28:17;;;;;;;3.30;3.00;;;13.10;1.00;;;;;;8265094;28;20188;-62
2023/07/21 00:32:22;;;;;;;4.97;3.17;;;13.10;1.00;;;;;;8265830;28;20193;-63
2023/07/21 00:36:26;;;;;;;3.03;2.43;;;13.00;1.00;;;;;;8265520;28;20192;-63
2023/07/21 00:40:27;;;;;;;3.80;2.83;;;12.90;1.00;;;;;;8265783;28;20299;-63
2023/07/21 00:44:28;;;;;;;3.50;2.70;;;12.90;92.90;;;;;;8270188;28;20221;-65
2023/07/21 00:48:30;;;;;;;3.43;3.13;;;13.00;99.90;;;;;;8265811;28;20189;-64
2023/07/21 00:52:31;;;;;;;3.73;3.07;;;12.90;99.90;;;;;;8266682;28;20260;-64
2023/07/21 00:56:32;;;;;;;3.70;3.00;;;12.90;99.90;;;;;;8256316;28;20293;-65
2023/07/21 01:00:36;;;;;;;3.07;2.57;;;12.80;99.90;;;;;;8261027;28;20208;-65
2023/07/21 01:04:38;;;;;;;2.77;2.57;;;12.60;51.00;;;;;;8265399;28;20217;-64
2023/07/21 01:08:39;;;;;;;4.70;3.40;;;12.40;90.70;;;;;;8271107;28;20216;-65
2023/07/21 01:12:40;;;;;;;3.43;3.13;;;12.30;99.90;;;;;;8262977;28;20192;-65
2023/07/21 01:16:44;;;;;;;2.83;2.60;;;12.10;99.90;;;;;;8259773;28;20310;-64
2023/07/21 01:20:47;;;;;;;2.50;2.30;;;11.90;99.90;;;;;;8269390;28;20307;-63
2023/07/21 01:24:54;;;;;;;4.50;2.87;;;11.70;99.90;;;;;;8262483;28;20264;-63
2023/07/21 01:28:55;;;;;;;2.90;2.70;;;11.60;99.90;;;;;;8260761;28;20191;-63
2023/07/21 01:32:58;;;;;;;2.50;2.30;;;11.60;1.00;;;;;;8258279;28;20195;-65
2023/07/21 01:37:00;;;;;;;3.33;3.00;;;11.50;1.00;;;;;;8257927;28;20187;-64
2023/07/21 01:41:02;;;;;;;2.40;2.20;;;11.40;1.00;;;;;;8262675;28;20221;-65
2023/07/21 01:45:08;;;;;;;3.00;2.70;;;11.30;33.20;;;;;;8264652;28;20191;-63
2023/07/21 01:49:12;;;;;;;4.13;3.57;;;11.20;99.90;;;;;;8263452;28;20199;-67
2023/07/21 01:53:19;;;;;;;3.03;2.77;;;11.20;1.00;;;;;;8252338;28;20255;-64
2023/07/21 01:57:31;;;;;;;5.37;3.40;;;11.20;1.00;;;;;;8262804;28;20219;-64
2023/07/21 02:01:42;;;;;;;3.67;2.90;;;11.10;1.00;;;;;;8240788;28;20206;-64
2023/07/21 02:05:43;;;;;;;3.97;3.57;;;11.00;1.00;;;;;;8267093;28;20204;-64
2023/07/21 02:09:44;;;;;;;5.47;3.90;;;10.90;99.90;;;;;;8262028;28;20203;-65
2023/07/21 02:13:45;;;;;;;3.13;2.77;;;10.80;54.50;;;;;;8265048;28;20187;-66
2023/07/21 02:17:46;;;;;;;2.33;2.10;;;10.70;1.00;;;;;;8268681;28;20198;-63
2023/07/21 02:21:50;;;;;;;2.07;1.83;;;10.60;99.90;;;;;;8262908;28;20207;-64
2023/07/21 02:25:51;;;;;;;1.90;1.70;;;10.50;82.60;;;;;;8264212;28;20187;-64
2023/07/21 02:29:52;;;;;;;4.37;1.60;;;10.30;99.90;;;;;;8266528;28;20218;-64
2023/07/21 02:33:53;;;;;;;2.43;2.23;;;10.30;1.00;;;;;;8266780;28;20413;-65
2023/07/21 02:37:57;;;;;;;3.23;2.93;;;10.30;99.90;;;;;;8263577;28;20273;-64
2023/07/21 02:42:01;;;;;;;3.20;2.90;;;10.30;99.90;;;;;;8265494;28;20225;-64
2023/07/21 02:46:04;;;;;;;2.10;1.97;;;10.30;99.90;;;;;;8267948;28;20191;-64
2023/07/21 02:50:09;;;;;;;2.30;2.10;;;10.20;1.00;;;;;;8265219;28;20198;-64
2023/07/21 02:54:10;;;;;;;3.20;2.90;;;10.10;99.90;;;;;;8266419;28;20191;-65
2023/07/21 02:58:13;;;;;;;3.17;2.93;;;9.90;99.90;;;;;;8270267;28;20304;-65
2023/07/21 03:02:14;;;;;;;3.30;3.00;;;9.80;99.90;;;;;;8268612;28;20180;-64
2023/07/21 03:06:15;;;;;;;2.57;2.37;;;9.70;1.00;;;;;;8266137;28;20230;-65
2023/07/21 03:10:16;;;;;;;2.77;2.57;;;9.70;1.00;;;;;;8261613;28;20191;-65
2023/07/21 03:14:17;;;;;;;2.90;2.63;;;9.70;99.90;;;;;;8269389;28;20191;-63
2023/07/21 03:18:18;;;;;;;2.53;2.10;;;9.70;1.00;;;;;;8265905;28;20211;-63
2023/07/21 03:22:19;;;;;;;3.73;2.90;;;9.80;99.90;;;;;;8261858;28;20183;-63
2023/07/21 03:26:20;;;;;;;3.13;2.93;;;9.80;62.80;;;;;;8265472;28;20183;-63
2023/07/21 03:30:21;;;;;;;3.10;2.80;;;9.80;99.90;;;;;;8266084;28;20187;-63
2023/07/21 03:34:22;;;;;;;3.50;3.20;;;9.90;99.90;;;;;;8260357;28;20198;-65
2023/07/21 03:38:23;;;;;;;4.23;2.90;;;10.40;99.90;;;;;;8260676;28;20213;-64
2023/07/21 03:42:27;;;;;;;3.40;3.10;;;10.90;99.90;;;;;;8265074;28;20214;-66
2023/07/21 03:46:28;;;;;;;2.73;2.50;;;11.10;99.90;;;;;;8273441;28;20187;-67
2023/07/21 03:50:28;;;;;;;3.10;2.80;;;11.10;99.90;;;;;;8266209;28;20195;-66
2023/07/21 03:54:30;;;;;;;2.47;2.27;;;11.60;99.90;;;;;;8268182;28;20202;-68
2023/07/21 03:58:30;;;;;;;2.10;2.00;;;12.60;1.00;;;;;;8272629;28;20311;-66
2023/07/21 04:02:31;;;;;;;2.73;2.53;;;13.60;1.00;;;;;;8269367;28;20252;-68
2023/07/21 04:06:32;;;;;;;2.17;2.00;;;14.50;99.90;;;;;;8269804;28;20242;-69
2023/07/21 04:10:33;;;;;;;2.40;1.80;;;15.00;1.00;;;;;;8270411;28;20199;-67
2023/07/21 04:14:34;;;;;;;2.83;1.80;;;15.40;1.00;;;;;;8271716;28;20191;-68
2023/07/21 04:18:36;;;;;;;1.93;1.77;;;16.00;1.00;;;;;;8271338;28;20215;-67
2023/07/21 04:22:37;;;;;;;1.97;1.50;;;16.60;1.00;;;;;;8261355;28;20192;-69
2023/07/21 04:26:39;;;;;;;2.30;1.53;;;17.20;1.00;;;;;;8283180;28;20187;-68
2023/07/21 04:30:40;;;;;;;1.90;1.70;;;17.80;1.00;;;;;;8267471;28;20191;-69
2023/07/21 04:34:41;;;;;;;2.37;1.50;;;18.20;1.00;;;;;;8266954;28;20195;-69
2023/07/21 04:38:42;;;;;;;3.13;1.63;;;18.60;1.00;;;;;;8265720;28;20300;-68
2023/07/21 04:42:44;;;;;;;1.93;1.73;;;18.90;1.00;;;;;;8271807;28;20187;-68
2023/07/21 04:46:46;;;;;;;1.70;1.60;;;19.30;1.00;;;;;;8279514;28;20175;-68
2023/07/21 04:50:51;;;;;;;3.63;2.00;;;19.30;1.00;;;;;;8270738;28;20190;-68
2023/07/21 04:54:55;;;;;;;5.67;2.80;;;19.30;99.90;;;;;;8272010;28;20194;-69
2023/07/21 04:58:56;;;;;;;7.13;4.20;;;18.90;1.00;;;;;;8264761;28;20218;-68
2023/07/21 05:02:57;;;;;;;3.83;2.93;;;18.90;1.00;;;;;;8265522;28;20210;-68
2023/07/21 05:06:58;;;;;;;7.50;3.30;;;19.10;1.00;;;;;;8263010;28;20203;-68
2023/07/21 05:10:59;;;;;;;4.33;2.87;;;19.10;1.00;;;;;;8274409;28;20203;-68
2023/07/21 05:15:00;;;;;;;3.87;3.20;;;19.00;1.00;;;;;;8269842;28;20199;-68
2023/07/21 05:19:01;;;;;;;3.80;2.57;;;18.30;1.00;;;;;;8266333;28;20222;-69
2023/07/21 05:23:02;;;;;;;5.17;3.67;;;17.80;1.00;;;;;;8272258;28;20191;-67
2023/07/21 05:27:09;;;;;;;9.47;6.63;;;17.50;1.00;;;;;;8266888;28;20241;-69
2023/07/21 05:31:13;;;;;;;3.97;3.50;;;17.20;1.00;;;;;;8268929;28;20187;-70
2023/07/21 05:35:14;;;;;;;4.00;2.97;;;17.10;1.00;;;;;;8258006;28;20306;-70
2023/07/21 05:39:15;;;;;;;3.00;2.53;;;17.00;1.00;;;;;;8268451;28;20221;-69
2023/07/21 05:43:15;;;;;;;3.77;2.23;;;17.10;1.00;;;;;;8269987;28;20286;-68
2023/07/21 05:47:22;;;;;;;2.80;2.20;;;17.20;1.00;;;;;;8267207;28;20198;-68
2023/07/21 05:51:23;;;;;;;2.20;2.00;;;17.30;1.00;;;;;;8274996;28;20187;-69
2023/07/21 05:55:24;;;;;;;3.70;2.50;;;17.60;1.00;;;;;;8263735;28;20191;-69
2023/07/21 05:59:25;;;;;;;3.67;2.20;;;17.80;1.00;;;;;;8274071;28;20275;-66
2023/07/21 06:03:26;;;;;;;3.10;2.00;;;18.20;1.00;;;;;;8268152;28;20269;-67
2023/07/21 06:07:28;;;;;;;2.50;2.30;;;18.50;1.00;;;;;;8266256;28;20191;-67
2023/07/21 06:11:29;;;;;;;4.07;2.40;;;18.70;1.00;;;;;;8263639;28;20196;-68
2023/07/21 06:15:29;;;;;;;2.97;2.33;;;18.80;1.00;;;;;;8267687;28;20222;-68
2023/07/21 06:19:31;;;;;;;3.13;2.37;;;18.80;1.00;;;;;;8262201;28;20207;-67
2023/07/21 06:23:32;;;;;;;2.67;2.40;;;19.10;1.00;;;;;;8261297;28;20195;-70
2023/07/21 06:27:34;;;;;;;2.63;2.10;;;19.50;1.00;;;;;;8264621;28;20195;-68
2023/07/21 06:31:38;;;;;;;1.73;1.47;;;20.00;1.00;;;;;;8268770;28;20262;-67
2023/07/21 06:35:39;;;;;;;4.23;2.53;;;20.40;1.00;;;;;;8266683;28;20195;-67
2023/07/21 06:39:39;;;;;;;4.33;2.33;;;20.80;1.00;;;;;;8266053;28;20215;-68
2023/07/21 06:43:40;;;;;;;3.27;2.17;;;21.00;99.90;;;;;;8277010;28;20238;-66
2023/07/21 06:47:41;;;;;;;2.53;1.70;;;21.30;99.90;;;;;;8262357;28;20207;-65
2023/07/21 06:51:42;;;;;;;1.50;1.40;;;21.60;99.90;;;;;;8272468;28;20194;-71
2023/07/21 06:55:46;;;;;;;3.03;1.53;;;21.60;99.90;;;;;;8268520;28;20198;-68
2023/07/21 06:59:47;;;;;;;2.67;1.33;;;21.80;99.90;;;;;;8274356;28;20274;-70
2023/07/21 07:03:47;;;;;;;4.20;1.50;;;22.20;99.90;;;;;;8271027;28;20207;-68
2023/07/21 07:07:52;;;;;;;1.50;1.10;;;22.70;99.90;;;;;;8257882;28;20229;-65
2023/07/21 07:11:52;;;;;;;3.43;1.33;;;23.30;99.90;;;;;;8262286;28;20211;-70
2023/07/21 07:15:56;;;;;;;3.80;1.57;;;23.80;99.90;;;;;;8270337;28;20183;-70
2023/07/21 07:19:57;;;;;;;1.57;1.17;;;24.30;99.90;;;;;;8265832;28;20215;-69
2023/07/21 07:23:58;;;;;;;1.47;1.20;;;24.70;99.90;;;;;;8267333;28;20297;-70
2023/07/21 07:27:58;;;;;;;2.43;1.20;;;24.80;99.90;;;;;;8272170;28;20187;-68
2023/07/21 07:31:59;;;;;;;1.17;0.60;;;24.90;99.90;;;;;;8268444;28;20191;-69
2023/07/21 07:36:00;;;;;;;3.60;1.13;;;24.90;99.90;;;;;;8263430;28;20202;-68
2023/07/21 07:40:03;;;;;;;1.00;0.80;;;25.00;99.90;;;;;;8271329;28;20199;-66
2023/07/21 07:44:08;;;;;;;0.90;0.67;;;25.10;99.90;;;;;;8270228;28;20187;-67
2023/07/21 07:48:10;;;;;;;2.17;0.87;;;25.20;99.90;;;;;;8266808;28;20175;-68
2023/07/21 07:52:11;;;;;;;1.67;0.90;;;25.40;99.90;;;;;;8263292;28;20274;-69
2023/07/21 07:56:15;;;;;;;1.20;0.73;;;25.60;99.90;;;;;;8271160;28;20187;-68
2023/07/21 08:00:17;;;;;;;1.83;0.80;;;25.80;99.90;;;;;;8266655;28;20211;-68
2023/07/21 08:04:18;;;;;;;1.30;0.80;;;26.00;99.90;;;;;;8267550;28;20210;-68
2023/07/21 08:08:21;;;;;;;1.13;0.80;;;26.20;99.90;;;;;;8265448;28;20222;-66
2023/07/21 08:12:22;;;;;;;1.48;0.60;;;26.20;99.90;;;;;;8264762;28;20187;-65
2023/07/21 08:16:23;;;;;;;1.47;0.83;;;26.00;99.90;;;;;;8269713;28;20189;-65
2023/07/21 08:20:24;;;;;;;1.77;0.67;;;26.00;99.90;;;;;;8259373;28;20210;-67
2023/07/21 08:24:24;;;;;;;1.23;0.80;;;26.20;99.90;;;;;;8267495;28;20221;-64
2023/07/21 08:28:25;;;;;;;1.73;0.95;;;26.20;99.90;;;;;;8261286;28;20269;-67
2023/07/21 08:32:27;;;;;;;2.30;0.67;;;26.00;99.90;;;;;;8262013;28;20179;-65
2023/07/21 08:36:30;;;;;;;1.73;0.80;;;26.00;99.90;;;;;;8267104;28;20179;-66
2023/07/21 08:40:32;;;;;;;1.67;0.70;;;26.00;99.90;;;;;;8269592;28;20302;-67
2023/07/21 08:44:33;;;;;;;2.15;0.63;;;26.10;99.90;;;;;;8273601;28;20183;-66
2023/07/21 08:48:35;;;;;;;2.55;0.73;;;26.40;99.90;;;;;;8259434;28;20202;-65
2023/07/21 08:52:45;;;;;;;4.55;0.90;;;26.80;99.90;;;;;;8266386;28;20187;-66
2023/07/21 08:56:46;;;;;;;1.35;0.70;;;27.10;99.90;;;;;;8268430;28;20215;-66
2023/07/21 09:00:49;;;;;;;1.95;0.73;;;27.00;99.90;;;;;;8255777;28;20219;-66
2023/07/21 09:04:50;;;;;;;1.55;0.50;;;27.40;99.90;;;;;;8278927;28;20204;-67
2023/07/21 09:08:54;;;;;;;0.68;0.50;;;27.90;99.90;;;;;;8259403;28;20222;-67
2023/07/21 09:12:55;;;;;;;3.33;0.70;;;28.40;99.90;;;;;;8278200;28;20285;-65
2023/07/21 09:16:57;;;;;;;0.73;0.40;;;28.60;99.90;;;;;;8258095;28;20198;-66
2023/07/21 09:20:58;;;;;;;0.50;0.50;;;28.60;99.90;;;;;;8260916;28;20382;-66
2023/07/21 09:25:02;;;;;;;0.85;0.50;;;28.60;99.90;;;;;;8280166;28;20191;-65
2023/07/21 09:29:18;;;;;;;1.08;0.50;;;28.50;99.90;;;;;;8277292;28;20191;-64
2023/07/21 09:33:24;;;;;;;0.75;0.50;;;28.60;99.90;;;;;;8274132;28;20209;-65
2023/07/21 09:37:29;;;;;;;0.60;0.30;;;28.40;99.90;;;;;;8268211;28;20199;-66
2023/07/21 09:41:34;;;;;;;0.80;0.50;;;28.50;99.90;;;;;;8263426;28;20211;-66
2023/07/21 09:45:41;;;;;;;0.60;0.47;;;28.90;99.90;;;;;;8263132;28;20183;-66
2023/07/21 09:49:42;;;;;;;1.17;0.60;;;29.00;99.90;;;;;;8258031;28;20204;-66
2023/07/21 09:53:44;;;;;;;0.63;0.50;;;29.10;99.90;;;;;;8261762;28;20297;-66
2023/07/21 09:57:46;;;;;;;2.55;0.40;;;29.10;99.90;;;;;;8260692;28;20188;-66
2023/07/21 10:01:48;;;;;;;0.90;0.40;;;29.20;99.90;;;;;;8263958;28;20215;-69
2023/07/21 10:05:50;;;;;;;3.00;0.90;;;29.30;99.90;;;;;;8257324;28;20199;-68
2023/07/21 10:09:51;;;;;;;0.47;0.40;;;29.30;99.90;;;;;;8262237;28;20203;-68
2023/07/21 10:13:52;;;;;;;1.77;0.82;;;29.40;99.90;;;;;;8267228;28;20218;-70
2023/07/21 10:18:02;;;;;;;1.50;0.70;;;29.60;99.90;;;;;;8267526;28;20183;-66
2023/07/21 10:22:03;;;;;;;3.28;0.63;;;29.70;99.90;;;;;;8261724;28;20235;-65
2023/07/21 10:26:05;;;;;;;1.15;0.60;;;29.50;99.90;;;;;;8260446;28;20184;-67
2023/07/21 10:30:22;;;;;;;1.15;0.30;;;29.10;99.90;;;;;;8264643;28;20192;-65
2023/07/21 10:34:34;;;;;;;1.08;0.75;;;29.20;99.90;;;;;;8268409;28;20272;-65
2023/07/21 10:38:40;;;;;;;0.90;0.50;;;29.30;99.90;;;;;;8281530;28;20245;-66
2023/07/21 10:42:41;;;;;;;0.82;0.50;;;29.30;99.90;;;;;;8272953;28;20187;-66
2023/07/21 10:46:44;;;;;;;1.23;0.60;;;29.50;99.90;;;;;;8271488;28;20198;-66
2023/07/21 10:50:54;;;;;;;2.25;0.60;;;29.60;99.90;;;;;;8271705;28;20218;-67
2023/07/21 10:54:57;;;;;;;1.55;0.60;;;29.70;99.90;;;;;;8268812;28;20309;-68
2023/07/21 10:58:58;;;;;;;0.50;0.28;;;29.80;99.90;;;;;;8273408;28;20207;-69
2023/07/21 11:02:58;;;;;;;1.90;0.43;;;29.60;99.90;;;;;;8270583;28;20325;-67
2023/07/21 11:07:00;;;;;;;0.75;0.60;;;29.50;99.90;;;;;;8269288;28;20195;-66
2023/07/21 11:11:01;;;;;;;0.90;0.35;;;29.50;99.90;;;;;;8269536;28;20202;-65
2023/07/21 11:15:03;;;;;;;0.68;0.52;;;29.60;99.90;;;;;;8272661;28;20269;-66
2023/07/21 11:19:04;;;;;;;3.13;0.57;;;29.70;99.90;;;;;;8271065;28;20244;-66
2023/07/21 11:23:05;;;;;;;2.28;0.60;;;29.90;99.90;;;;;;8259731;28;20179;-71
2023/07/21 11:27:09;;;;;;;2.75;0.47;;;29.90;99.90;;;;;;8271024;28;20207;-69
2023/07/21 11:31:12;;;;;;;1.65;0.50;;;29.90;99.90;;;;;;8268040;28;20191;-67
2023/07/21 11:35:14;;;;;;;1.50;0.40;;;29.70;99.90;;;;;;8285793;28;20209;-70
2023/07/21 11:39:19;;;;;;;1.38;0.50;;;29.40;99.90;;;;;;8272970;28;20238;-68
2023/07/21 11:43:20;;;;;;;0.80;0.60;;;29.30;99.90;;;;;;8273329;28;20194;-64
2023/07/21 11:47:21;;;;;;;0.95;0.47;;;28.90;99.90;;;;;;8272932;28;20179;-67
2023/07/21 11:51:22;;;;;;;1.80;0.30;;;28.70;99.90;;;;;;8268346;28;20229;-68
2023/07/21 11:55:23;;;;;;;1.65;0.70;;;28.60;99.90;;;;;;8274282;28;20199;-67
2023/07/21 11:59:24;;;;;;;1.10;0.60;;;28.50;99.90;;;;;;8268631;28;20206;-65
2023/07/21 12:03:26;;;;;;;1.25;0.88;;;28.20;99.90;;;;;;8274984;28;20237;-68
2023/07/21 12:07:26;;;;;;;0.85;0.60;;;28.20;99.90;;;;;;8268445;28;20199;-64
2023/07/21 12:11:31;;;;;;;0.95;0.68;;;28.30;99.90;;;;;;8262568;28;20322;-66
2023/07/21 12:15:33;;;;;;;1.10;0.77;;;28.40;99.90;;;;;;8269891;28;20192;-67
2023/07/21 12:19:35;;;;;;;5.07;1.20;;;28.40;99.90;;;;;;8266914;28;20245;-63
2023/07/21 12:23:36;;;;;;;1.40;0.50;;;28.60;99.90;;;;;;8280286;28;20194;-65
2023/07/21 12:27:37;;;;;;;2.00;0.70;;;28.10;99.90;;;;;;8265334;28;20183;-64
2023/07/21 12:31:41;;;;;;;1.58;0.80;;;27.80;99.90;;;;;;8262262;28;20189;-65
2023/07/21 12:35:42;;;;;;;0.95;0.80;;;27.60;99.90;;;;;;8259539;28;20271;-63
2023/07/21 12:39:46;;;;;;;4.95;0.63;;;27.40;99.90;;;;;;8259397;28;20270;-66
2023/07/21 12:43:47;;;;;;;1.52;1.00;;;27.40;99.90;;;;;;8258862;28;20191;-66
2023/07/21 12:47:51;;;;;;;1.08;0.70;;;27.40;99.90;;;;;;8265850;28;20214;-66
2023/07/21 12:51:52;;;;;;;1.65;0.73;;;27.60;99.90;;;;;;8261912;28;20191;-67
2023/07/21 12:55:53;;;;;;;1.88;0.50;;;27.50;99.90;;;;;;8274974;28;20191;-66
2023/07/21 12:59:54;;;;;;;2.50;0.50;;;26.60;99.90;;;;;;8262921;28;20226;-66
2023/07/21 13:03:55;;;;;;;1.25;0.40;;;26.70;99.90;;;;;;8255165;28;20222;-67
2023/07/21 13:07:56;;;;;;;1.23;0.50;;;27.00;99.90;;;;;;8268816;28;20203;-65
2023/07/21 13:11:57;;;;;;;0.90;0.50;;;27.20;99.90;;;;;;8257996;28;20298;-65
2023/07/21 13:15:58;;;;;;;0.70;0.60;;;27.60;99.90;;;;;;8261285;28;20304;-65
2023/07/21 13:19:59;;;;;;;2.25;0.60;;;27.20;99.90;;;;;;8264118;28;20258;-65
2023/07/21 13:24:00;;;;;;;1.30;0.80;;;26.50;99.90;;;;;;8263634;28;20183;-64
2023/07/21 13:28:01;;;;;;;0.83;0.60;;;25.60;99.90;;;;;;8265774;28;20219;-64
2023/07/21 13:32:02;;;;;;;2.50;0.70;;;25.20;99.90;;;;;;8262287;28;20266;-66
2023/07/21 13:36:03;;;;;;;2.70;0.60;;;24.80;99.90;;;;;;8259055;28;20282;-66
2023/07/21 13:40:05;;;;;;;0.70;0.57;;;24.70;99.90;;;;;;8261958;28;20199;-65
2023/07/21 13:44:07;;;;;;;0.87;0.60;;;24.80;99.90;;;;;;8260340;28;20215;-65
2023/07/21 13:48:08;;;;;;;0.90;0.70;;;25.10;99.90;;;;;;8265513;28;20211;-66
2023/07/21 13:52:11;;;;;;;0.73;0.57;;;25.50;99.90;;;;;;8264232;28;20249;-65
2023/07/21 13:56:12;;;;;;;2.10;0.60;;;25.90;99.90;;;;;;8264051;28;20193;-67
2023/07/21 14:00:18;;;;;;;1.20;0.83;;;26.30;99.90;;;;;;8260772;28;20306;-65
2023/07/21 14:04:20;;;;;;;0.77;0.60;;;26.60;99.90;;;;;;8272233;28;20207;-66
2023/07/21 14:08:21;;;;;;;1.17;0.80;;;26.60;99.90;;;;;;8287664;28;20203;-66
2023/07/21 14:12:22;;;;;;;0.63;0.60;;;26.50;99.90;;;;;;8272297;28;20187;-64
2023/07/21 14:16:23;;;;;;;1.77;0.70;;;26.30;99.90;;;;;;8266922;28;20202;-65
2023/07/21 14:20:23;;;;;;;0.93;0.60;;;26.10;99.90;;;;;;8272954;28;20278;-66
2023/07/21 14:24:24;;;;;;;2.67;0.90;;;25.80;99.90;;;;;;8274235;28;20187;-64
2023/07/21 14:28:26;;;;;;;2.23;0.80;;;25.60;99.90;;;;;;8271646;28;20194;-67
2023/07/21 14:32:27;;;;;;;2.20;0.57;;;25.40;99.90;;;;;;8270438;28;20187;-63
2023/07/21 14:36:28;;;;;;;0.80;0.70;;;25.40;99.90;;;;;;8265897;28;20400;-65
2023/07/21 14:40:29;;;;;;;2.80;0.70;;;25.40;99.90;;;;;;8264637;28;20352;-66
2023/07/21 14:44:30;;;;;;;1.30;0.70;;;25.50;99.90;;;;;;8269221;28;20187;-65
2023/07/21 14:48:31;;;;;;;1.90;0.80;;;25.60;99.90;;;;;;8270999;28;20194;-66
2023/07/21 14:52:33;;;;;;;0.60;0.50;;;25.60;99.90;;;;;;8259376;28;20187;-66
2023/07/21 14:56:36;;;;;;;6.93;0.80;;;25.40;99.90;;;;;;8268182;28;20180;-66
2023/07/21 15:00:37;;;;;;;1.73;0.70;;;25.40;99.90;;;;;;8261623;28;20221;-67
2023/07/21 15:04:38;;;;;;;1.80;1.10;;;25.40;99.90;;;;;;8263370;28;20218;-67
2023/07/21 15:08:39;;;;;;;8.53;1.10;;;25.50;99.90;;;;;;8260141;28;20199;-65
2023/07/21 15:12:50;;;;;;;2.63;1.00;;;25.50;99.90;;;;;;8266355;28;20270;-65
2023/07/21 15:16:52;;;;;;;1.20;0.70;;;25.50;99.90;;;;;;8265206;28;20199;-66
2023/07/21 15:20:53;;;;;;;2.20;0.70;;;25.40;99.90;;;;;;8266110;28;20214;-67
2023/07/21 15:24:54;;;;;;;1.97;0.73;;;25.20;99.90;;;;;;8268922;28;20229;-69
2023/07/21 15:28:55;;;;;;;0.97;0.70;;;25.20;99.90;;;;;;8273214;28;20286;-66
2023/07/21 15:32:56;;;;;;;2.00;0.80;;;25.10;99.90;;;;;;8269592;28;20191;-66
2023/07/21 15:36:57;;;;;;;1.93;0.93;;;25.00;99.90;;;;;;8279569;28;20191;-67
2023/07/21 15:40:58;;;;;;;0.60;0.60;;;24.90;99.90;;;;;;8275592;28;20214;-66
2023/07/21 15:45:00;;;;;;;1.57;0.80;;;24.70;99.90;;;;;;8274343;28;20184;-65
2023/07/21 15:49:01;;;;;;;1.23;0.70;;;24.60;99.90;;;;;;8269053;28;20195;-66
2023/07/21 15:53:02;;;;;;;1.27;0.50;;;24.60;99.90;;;;;;8272771;28;20190;-66
2023/07/21 15:57:03;;;;;;;1.53;1.07;;;24.50;99.90;;;;;;8270775;28;20187;-66
2023/07/21 16:01:05;;;;;;;11.47;9.33;;;24.30;99.90;;;;;;8265150;28;20218;-64
2023/07/21 16:05:18;;;;;;;2.40;2.17;;;24.20;99.90;;;;;;8529927;22;20236;-66
2023/07/21 16:09:21;;;;;;;3.03;0.73;;;24.20;99.90;;;;;;8190761;28;20201;-66
2023/07/21 16:13:22;;;;;;;0.90;0.80;;;24.10;99.90;;;;;;8212698;28;20272;-66
2023/07/21 16:17:27;;;;;;;11.73;7.20;;;23.90;99.90;;;;;;8200981;28;20188;-66
2023/07/21 16:21:31;;;;;;;16.07;8.63;;;23.50;99.90;;;;;;8201524;28;20232;-67
2023/07/21 16:25:32;;;;;;;20.87;9.40;;;23.30;99.90;;;;;;8224930;28;20306;-67
2023/07/21 16:29:33;;;;;;;14.43;6.63;;;23.20;99.90;;;;;;8224573;28;20189;-67
2023/07/21 16:33:34;;;;;;;10.97;6.07;;;23.20;99.90;;;;;;8209165;28;20188;-66
2023/07/21 16:37:35;;;;;;;6.53;4.50;;;23.20;99.90;;;;;;8209013;28;20227;-67
2023/07/21 16:41:36;;;;;;;3.93;2.43;;;23.20;99.90;;;;;;8206869;28;20208;-66
2023/07/21 16:45:42;;;;;;;4.80;2.07;;;23.20;99.90;;;;;;8203519;28;20183;-66
2023/07/21 16:49:53;;;;;;;;;;;;;;;;;;;;;
2023/07/21 16:53:58;;;;;;;1.63;1.10;;;23.20;99.90;;;;;;8201090;28;20224;-66
2023/07/21 16:58:00;;;;;;;2.93;1.20;;;23.30;99.90;;;;;;8216980;28;20176;-66
2023/07/21 17:02:01;;;;;;;1.17;1.07;;;23.40;99.90;;;;;;8198555;28;20208;-66
2023/07/21 17:06:03;;;;;;;1.40;1.20;;;23.30;99.90;;;;;;8191606;28;20303;-68
2023/07/21 17:10:13;;;;;;;2.17;1.60;;;22.80;99.90;;;;;;8196822;28;20216;-67
2023/07/21 17:14:18;;;;;;;1.70;1.50;;;22.30;99.90;;;;;;8200171;28;20216;-69
2023/07/21 17:18:19;;;;;;;1.80;1.40;;;21.80;99.90;;;;;;8213404;28;20223;-68
2023/07/21 17:22:20;;;;;;;1.30;1.20;;;21.30;99.90;;;;;;8192215;28;20223;-68
2023/07/21 17:26:21;;;;;;;1.47;1.37;;;20.80;99.90;;;;;;8197031;28;20203;-67
2023/07/21 17:30:22;;;;;;;1.23;1.10;;;20.40;99.90;;;;;;8198270;28;20288;-69
2023/07/21 17:34:23;;;;;;;2.60;1.43;;;20.10;99.90;;;;;;8216595;28;20199;-64
2023/07/21 17:38:27;;;;;;;2.03;1.47;;;20.00;99.90;;;;;;8197497;28;20234;-67
2023/07/21 17:42:33;;;;;;;2.57;1.90;;;19.90;99.90;;;;;;8197766;28;20278;-67
2023/07/21 17:46:34;;;;;;;1.60;1.37;;;19.80;99.90;;;;;;8199774;28;20188;-67
2023/07/21 17:50:35;;;;;;;3.20;2.60;;;19.70;99.90;;;;;;8195180;28;20217;-66
2023/07/21 17:54:36;;;;;;;2.53;1.50;;;19.70;99.90;;;;;;8197789;28;20193;-67
2023/07/21 17:58:38;;;;;;;1.40;1.20;;;19.60;99.90;;;;;;8199067;28;20188;-66
2023/07/21 18:02:42;;;;;;;2.13;1.60;;;19.50;99.90;;;;;;8201100;28;20230;-66
2023/07/21 18:06:43;;;;;;;2.53;1.67;;;19.50;99.90;;;;;;8201428;28;20188;-65
2023/07/21 18:10:44;;;;;;;1.80;1.37;;;19.40;99.90;;;;;;8202772;28;20196;-62
2023/07/21 18:14:48;;;;;;;3.57;1.43;;;19.20;99.90;;;;;;8205816;28;20199;-65
2023/07/21 18:18:49;;;;;;;2.03;1.50;;;19.10;99.90;;;;;;8207551;28;20196;-65
2023/07/21 18:22:55;;;;;;;5.23;1.40;;;19.00;99.90;;;;;;8211624;28;20189;-66
2023/07/21 18:26:58;;;;;;;1.87;1.70;;;18.80;99.90;;;;;;8203954;28;20219;-66
2023/07/21 18:30:58;;;;;;;2.70;1.60;;;18.70;99.90;;;;;;8204138;28;20205;-66
2023/07/21 18:35:02;;;;;;;3.77;1.80;;;18.60;99.90;;;;;;8203372;28;20202;-67
2023/07/21 18:39:09;;;;;;;1.60;1.50;;;18.50;99.90;;;;;;8196690;28;20204;-67
2023/07/21 18:43:10;;;;;;;2.17;1.70;;;18.40;99.90;;;;;;8202242;28;20185;-65
2023/07/21 18:47:14;;;;;;;2.53;1.87;;;18.20;99.90;;;;;;8204673;28;20185;-67
2023/07/21 18:51:15;;;;;;;3.10;1.83;;;18.10;1.00;;;;;;8201239;28;20263;-64
2023/07/21 18:55:16;;;;;;;5.70;2.00;;;18.00;1.00;;;;;;8208696;28;20216;-64
2023/07/21 18:59:17;;;;;;;3.17;2.10;;;18.00;1.00;;;;;;8209009;28;20204;-63
2023/07/21 19:03:18;;;;;;;3.20;1.50;;;17.90;1.00;;;;;;8210823;28;20220;-63
2023/07/21 19:07:19;;;;;;;1.40;1.30;;;17.80;1.00;;;;;;8200504;28;20193;-64
2023/07/21 19:11:21;;;;;;;1.80;1.50;;;17.80;1.00;;;;;;8205471;28;20224;-64
2023/07/21 19:15:22;;;;;;;2.40;1.53;;;17.80;1.00;;;;;;8207361;28;20193;-63
2023/07/21 19:19:23;;;;;;;2.67;1.80;;;17.80;1.00;;;;;;8227724;28;20227;-63
2023/07/21 19:23:24;;;;;;;2.30;1.77;;;17.70;1.00;;;;;;8211591;28;20191;-64
2023/07/21 19:27:28;;;;;;;2.77;1.80;;;17.60;1.00;;;;;;8208231;28;20239;-63
2023/07/21 19:31:30;;;;;;;2.30;1.70;;;17.60;1.00;;;;;;8209035;28;20278;-64
2023/07/21 19:35:35;;;;;;;2.10;1.77;;;17.50;1.00;;;;;;8206871;28;20189;-64
2023/07/21 19:39:38;;;;;;;2.77;2.17;;;17.50;1.00;;;;;;8209887;28;20232;-66
2023/07/21 19:43:46;;;;;;;2.10;1.90;;;17.40;1.00;;;;;;8206446;28;20195;-65
2023/07/21 19:47:50;;;;;;;1.90;1.70;;;17.40;1.00;;;;;;8215537;28;20184;-67
2023/07/21 19:51:52;;;;;;;3.40;1.70;;;17.40;1.00;;;;;;8204112;28;20257;-65
2023/07/21 19:56:16;;;;;;;3.47;1.90;;;17.40;1.00;;;;;;8226659;28;20185;-65
2023/07/21 20:00:18;;;;;;;2.60;1.70;;;17.40;1.00;;;;;;8208170;28;20318;-65
2023/07/21 20:04:19;;;;;;;2.10;1.90;;;17.40;1.00;;;;;;8207708;28;20220;-65
2023/07/21 20:08:21;;;;;;;1.93;1.77;;;17.40;1.00;;;;;;8205915;28;20197;-67
2023/07/21 20:12:23;;;;;;;3.83;2.60;;;17.30;1.00;;;;;;8218682;28;20239;-66
2023/07/21 20:16:26;;;;;;;3.83;2.63;;;17.30;1.00;;;;;;8208316;28;20213;-68
2023/07/21 20:20:31;;;;;;;3.57;2.50;;;17.30;1.00;;;;;;8191322;28;20220;-68
2023/07/21 20:25:18;;;;;;;4.17;3.17;;;17.10;1.00;;;;;;8171186;28;20188;-68
2023/07/21 20:29:53;;;;;;;5.37;2.70;;;17.00;1.00;;;;;;8160628;28;20279;-72
2023/07/21 20:34:05;;;;;;;3.43;2.70;;;16.90;1.00;;;;;;8153210;28;20200;-66
2023/07/21 20:38:09;;;;;;;7.03;3.17;;;16.90;1.00;;;;;;8192286;28;20283;-65
2023/07/21 20:42:10;;;;;;;3.33;3.03;;;16.90;1.00;;;;;;8210793;28;20221;-65
2023/07/21 20:46:21;;;;;;;4.40;3.20;;;16.80;1.00;;;;;;8195907;28;20200;-66
2023/07/21 20:50:24;;;;;;;4.73;2.93;;;16.80;1.00;;;;;;8192833;28;20205;-66
2023/07/21 20:54:25;;;;;;;5.23;3.07;;;16.80;1.00;;;;;;8196478;28;20199;-68
2023/07/21 20:58:26;;;;;;;3.10;2.80;;;16.80;1.00;;;;;;8199448;28;20228;-68
2023/07/21 21:02:27;;;;;;;3.93;2.77;;;16.80;1.00;;;;;;8202921;28;20228;-66
2023/07/21 21:06:36;;;;;;;3.50;3.20;;;16.80;1.00;;;;;;8200383;28;20197;-67
2023/07/21 21:10:43;;;;;;;3.10;2.80;;;16.90;1.00;;;;;;8206215;28;20264;-67